sensor_id;sensor_type;location;lat;lon;timestamp;P1;durP1;ratioP1;P2;durP2;ratioP2
50651;SDS011;66928;52.086;5.240;2023-04-06T05:09:13;15.9;;;13.1;;
50651;SDS011;66928;52.086;5.240;2023-04-06T05:10:49;16.4;;;13.3;;
50651;SDS011;66928;52.086;5.240;2023-04-06T05:12:26;18.2;;;13.6;;
50651;SDS011;66928;52.086;5.240;2023-04-06T05:14:02;16.9;;;13.6;;
50651;SDS011;66928;52.086;5.240;2023-04-06T05:17:15;18.61;;;13.9;;
50651;SDS011;66928;52.086;5.240;2023-04-06T05:18:52;16.9;;;13.5;;
50651;SDS011;66928;52.086;5.240;2023-04-06T05:20:28;17.11;;;13.6;;
50651;SDS011;66928;52.086;5.240;2023-04-06T05:25:18;18.7;;;14.5;;
50651;SDS011;66928;52.086;5.240;2023-04-06T05:26:55;17.61;;;14.1;;
50651;SDS011;66928;52.086;5.240;2023-04-06T05:30:08;18.2;;;13.8;;
50651;SDS011;66928;52.086;5.240;2023-04-06T05:31:45;19.2;;;14.5;;
50651;SDS011;66928;52.086;5.240;2023-04-06T05:33:22;19.3;;;14.2;;
50651;SDS011;66928;52.086;5.240;2023-04-06T05:34:59;18.11;;;14.2;;
50651;SDS011;66928;52.086;5.240;2023-04-06T05:38:13;19.3;;;14.4;;
50651;SDS011;66928;52.086;5.240;2023-04-06T05:39:48;16.3;;;13.7;;
50651;SDS011;66928;52.086;5.240;2023-04-06T05:41:24;17.3;;;14.5;;
50651;SDS011;66928;52.086;5.240;2023-04-06T05:44:38;18.11;;;14.1;;
50651;SDS011;66928;52.086;5.240;2023-04-06T05:46:14;20.8;;;14.4;;
50651;SDS011;66928;52.086;5.240;2023-04-06T05:47:51;19.7;;;14.5;;
50651;SDS011;66928;52.086;5.240;2023-04-06T05:51:03;19.91;;;14.6;;
50651;SDS011;66928;52.086;5.240;2023-04-06T05:52:40;19.2;;;13.7;;
50651;SDS011;66928;52.086;5.240;2023-04-06T05:54:17;19.41;;;14.8;;
50651;SDS011;66928;52.086;5.240;2023-04-06T05:55:53;19.2;;;14.4;;
50651;SDS011;66928;52.086;5.240;2023-04-06T05:59:06;19.11;;;15.3;;
50651;SDS011;66928;52.086;5.240;2023-04-06T06:00:43;17.61;;;14.7;;
50651;SDS011;66928;52.086;5.240;2023-04-06T06:02:20;21.1;;;15.7;;
50651;SDS011;66928;52.086;5.240;2023-04-06T06:05:33;19.41;;;15.6;;
50651;SDS011;66928;52.086;5.240;2023-04-06T06:07:10;16.8;;;14.8;;
50651;SDS011;66928;52.086;5.240;2023-04-06T06:08:46;20.6;;;15.8;;
50651;SDS011;66928;52.086;5.240;2023-04-06T06:11:59;20.2;;;15.5;;
50651;SDS011;66928;52.086;5.240;2023-04-06T06:13:36;19.41;;;15.9;;
50651;SDS011;66928;52.086;5.240;2023-04-06T06:15:12;18.7;;;15.5;;
50651;SDS011;66928;52.086;5.240;2023-04-06T06:16:48;20.6;;;16.4;;
50651;SDS011;66928;52.086;5.240;2023-04-06T06:20:00;19.91;;;15.9;;
50651;SDS011;66928;52.086;5.240;2023-04-06T06:21:36;21.3;;;16.7;;
50651;SDS011;66928;52.086;5.240;2023-04-06T06:23:13;21.3;;;16.2;;
50651;SDS011;66928;52.086;5.240;2023-04-06T06:26:26;21.1;;;16.11;;
50651;SDS011;66928;52.086;5.240;2023-04-06T06:28:02;23.8;;;16.61;;
50651;SDS011;66928;52.086;5.240;2023-04-06T06:29:38;21.1;;;16.11;;
50651;SDS011;66928;52.086;5.240;2023-04-06T06:32:51;22.3;;;16.5;;
50651;SDS011;66928;52.086;5.240;2023-04-06T06:34:27;20.7;;;16.2;;
50651;SDS011;66928;52.086;5.240;2023-04-06T06:36:04;20.8;;;16.11;;
50651;SDS011;66928;52.086;5.240;2023-04-06T06:37:40;21.6;;;16.3;;
50651;SDS011;66928;52.086;5.240;2023-04-06T06:40:52;20.7;;;16.3;;
50651;SDS011;66928;52.086;5.240;2023-04-06T06:42:28;20.2;;;16.61;;
50651;SDS011;66928;52.086;5.240;2023-04-06T06:44:04;21.4;;;16.8;;
50651;SDS011;66928;52.086;5.240;2023-04-06T06:47:18;21.1;;;16.11;;
50651;SDS011;66928;52.086;5.240;2023-04-06T06:48:54;20.5;;;16.5;;
50651;SDS011;66928;52.086;5.240;2023-04-06T06:50:30;21.8;;;16.61;;
50651;SDS011;66928;52.086;5.240;2023-04-06T06:53:42;21.9;;;17.3;;
50651;SDS011;66928;52.086;5.240;2023-04-06T06:55:18;18.8;;;16.61;;
50651;SDS011;66928;52.086;5.240;2023-04-06T06:56:54;22.2;;;16.7;;
50651;SDS011;66928;52.086;5.240;2023-04-06T06:58:31;22.3;;;16.61;;
50651;SDS011;66928;52.086;5.240;2023-04-06T07:01:45;23.2;;;17.2;;
50651;SDS011;66928;52.086;5.240;2023-04-06T07:03:21;23.0;;;16.7;;
50651;SDS011;66928;52.086;5.240;2023-04-06T07:04:57;21.4;;;16.7;;
50651;SDS011;66928;52.086;5.240;2023-04-06T07:08:11;21.6;;;17.5;;
50651;SDS011;66928;52.086;5.240;2023-04-06T07:09:47;20.5;;;17.2;;
50651;SDS011;66928;52.086;5.240;2023-04-06T07:11:24;22.4;;;16.7;;
50651;SDS011;66928;52.086;5.240;2023-04-06T07:14:36;22.7;;;17.5;;
50651;SDS011;66928;52.086;5.240;2023-04-06T07:16:12;20.6;;;17.11;;
50651;SDS011;66928;52.086;5.240;2023-04-06T07:17:48;21.7;;;17.11;;
50651;SDS011;66928;52.086;5.240;2023-04-06T07:21:00;20.2;;;17.0;;
50651;SDS011;66928;52.086;5.240;2023-04-06T07:22:37;22.3;;;16.9;;
50651;SDS011;66928;52.086;5.240;2023-04-06T07:24:14;22.0;;;17.3;;
50651;SDS011;66928;52.086;5.240;2023-04-06T07:25:50;21.4;;;17.0;;
50651;SDS011;66928;52.086;5.240;2023-04-06T07:29:02;22.4;;;18.41;;
50651;SDS011;66928;52.086;5.240;2023-04-06T07:30:40;20.0;;;17.2;;
50651;SDS011;66928;52.086;5.240;2023-04-06T07:32:16;24.0;;;18.5;;
50651;SDS011;66928;52.086;5.240;2023-04-06T07:35:28;23.5;;;18.41;;
50651;SDS011;66928;52.086;5.240;2023-04-06T07:37:04;20.7;;;17.5;;
50651;SDS011;66928;52.086;5.240;2023-04-06T07:38:40;20.8;;;17.3;;
50651;SDS011;66928;52.086;5.240;2023-04-06T07:41:52;21.8;;;17.7;;
50651;SDS011;66928;52.086;5.240;2023-04-06T07:43:28;23.4;;;17.91;;
50651;SDS011;66928;52.086;5.240;2023-04-06T07:45:05;21.4;;;17.11;;
50651;SDS011;66928;52.086;5.240;2023-04-06T07:46:42;21.5;;;18.2;;
50651;SDS011;66928;52.086;5.240;2023-04-06T07:49:54;23.5;;;17.5;;
50651;SDS011;66928;52.086;5.240;2023-04-06T07:51:30;23.8;;;17.91;;
50651;SDS011;66928;52.086;5.240;2023-04-06T07:53:06;22.4;;;17.8;;
50651;SDS011;66928;52.086;5.240;2023-04-06T07:56:20;24.6;;;17.8;;
50651;SDS011;66928;52.086;5.240;2023-04-06T07:57:56;23.1;;;18.0;;
50651;SDS011;66928;52.086;5.240;2023-04-06T07:59:33;22.3;;;17.61;;
50651;SDS011;66928;52.086;5.240;2023-04-06T08:02:45;21.4;;;18.0;;
50651;SDS011;66928;52.086;5.240;2023-04-06T08:04:21;23.8;;;18.8;;
50651;SDS011;66928;52.086;5.240;2023-04-06T08:05:57;22.0;;;18.11;;
50651;SDS011;66928;52.086;5.240;2023-04-06T08:07:34;31.9;;;23.9;;
50651;SDS011;66928;52.086;5.240;2023-04-06T08:10:46;25.5;;;19.7;;
50651;SDS011;66928;52.086;5.240;2023-04-06T08:12:21;23.6;;;19.0;;
50651;SDS011;66928;52.086;5.240;2023-04-06T08:17:09;25.3;;;18.8;;
50651;SDS011;66928;52.086;5.240;2023-04-06T08:18:45;24.0;;;18.7;;
50651;SDS011;66928;52.086;5.240;2023-04-06T08:20:22;24.3;;;19.0;;
50651;SDS011;66928;52.086;5.240;2023-04-06T08:23:34;22.3;;;18.7;;
50651;SDS011;66928;52.086;5.240;2023-04-06T08:25:10;25.8;;;19.11;;
50651;SDS011;66928;52.086;5.240;2023-04-06T08:26:45;28.2;;;20.6;;
50651;SDS011;66928;52.086;5.240;2023-04-06T08:29:57;28.7;;;21.2;;
50651;SDS011;66928;52.086;5.240;2023-04-06T08:31:33;26.2;;;19.61;;
50651;SDS011;66928;52.086;5.240;2023-04-06T08:33:10;25.9;;;20.11;;
50651;SDS011;66928;52.086;5.240;2023-04-06T08:34:46;26.1;;;19.61;;
50651;SDS011;66928;52.086;5.240;2023-04-06T08:37:58;26.1;;;19.61;;
50651;SDS011;66928;52.086;5.240;2023-04-06T08:39:34;25.9;;;19.5;;
50651;SDS011;66928;52.086;5.240;2023-04-06T08:41:11;25.2;;;20.0;;
50651;SDS011;66928;52.086;5.240;2023-04-06T08:44:30;26.3;;;20.41;;
50651;SDS011;66928;52.086;5.240;2023-04-06T08:46:08;26.2;;;19.41;;
50651;SDS011;66928;52.086;5.240;2023-04-06T08:47:44;25.5;;;20.41;;
50651;SDS011;66928;52.086;5.240;2023-04-06T08:49:22;29.0;;;21.1;;
50651;SDS011;66928;52.086;5.240;2023-04-06T08:52:34;24.4;;;19.5;;
50651;SDS011;66928;52.086;5.240;2023-04-06T08:54:12;25.6;;;19.8;;
50651;SDS011;66928;52.086;5.240;2023-04-06T08:55:49;28.3;;;21.0;;
50651;SDS011;66928;52.086;5.240;2023-04-06T08:59:03;27.1;;;20.41;;
50651;SDS011;66928;52.086;5.240;2023-04-06T09:00:40;26.5;;;20.5;;
50651;SDS011;66928;52.086;5.240;2023-04-06T09:02:17;26.5;;;21.0;;
50651;SDS011;66928;52.086;5.240;2023-04-06T09:05:33;26.4;;;20.5;;
50651;SDS011;66928;52.086;5.240;2023-04-06T09:07:10;24.4;;;19.61;;
50651;SDS011;66928;52.086;5.240;2023-04-06T09:08:47;25.2;;;20.8;;
50651;SDS011;66928;52.086;5.240;2023-04-06T09:10:23;27.2;;;20.6;;
50651;SDS011;66928;52.086;5.240;2023-04-06T09:15:21;23.6;;;19.61;;
50651;SDS011;66928;52.086;5.240;2023-04-06T09:16:57;25.6;;;20.0;;
50651;SDS011;66928;52.086;5.240;2023-04-06T09:20:10;28.7;;;20.9;;
50651;SDS011;66928;52.086;5.240;2023-04-06T09:21:47;25.7;;;20.2;;
50651;SDS011;66928;52.086;5.240;2023-04-06T09:23:23;25.5;;;20.0;;
50651;SDS011;66928;52.086;5.240;2023-04-06T09:24:59;25.7;;;20.2;;
50651;SDS011;66928;52.086;5.240;2023-04-06T09:28:26;25.0;;;20.0;;
50651;SDS011;66928;52.086;5.240;2023-04-06T09:30:03;24.6;;;20.11;;
50651;SDS011;66928;52.086;5.240;2023-04-06T09:31:41;26.8;;;20.7;;
50651;SDS011;66928;52.086;5.240;2023-04-06T09:35:06;27.0;;;20.6;;
50651;SDS011;66928;52.086;5.240;2023-04-06T09:36:43;25.2;;;20.6;;
50651;SDS011;66928;52.086;5.240;2023-04-06T09:38:19;29.0;;;21.7;;
50651;SDS011;66928;52.086;5.240;2023-04-06T09:40:02;25.8;;;21.2;;
50651;SDS011;66928;52.086;5.240;2023-04-06T09:43:23;29.3;;;21.9;;
50651;SDS011;66928;52.086;5.240;2023-04-06T09:44:59;30.5;;;22.1;;
50651;SDS011;66928;52.086;5.240;2023-04-06T09:46:36;27.8;;;21.1;;
50651;SDS011;66928;52.086;5.240;2023-04-06T09:48:15;30.4;;;23.4;;
50651;SDS011;66928;52.086;5.240;2023-04-06T09:51:35;28.4;;;23.1;;
50651;SDS011;66928;52.086;5.240;2023-04-06T09:53:15;28.1;;;22.4;;
50651;SDS011;66928;52.086;5.240;2023-04-06T09:54:55;32.0;;;23.0;;
50651;SDS011;66928;52.086;5.240;2023-04-06T09:56:37;29.5;;;22.9;;
50651;SDS011;66928;52.086;5.240;2023-04-06T10:00:01;28.4;;;22.6;;
50651;SDS011;66928;52.086;5.240;2023-04-06T10:01:40;28.8;;;23.2;;
50651;SDS011;66928;52.086;5.240;2023-04-06T10:03:20;29.5;;;21.9;;
50651;SDS011;66928;52.086;5.240;2023-04-06T10:05:05;28.6;;;22.2;;
50651;SDS011;66928;52.086;5.240;2023-04-06T10:06:48;31.0;;;23.5;;
50651;SDS011;66928;52.086;5.240;2023-04-06T10:10:03;26.5;;;20.41;;
50651;SDS011;66928;52.086;5.240;2023-04-06T10:11:40;26.7;;;20.3;;
50651;SDS011;66928;52.086;5.240;2023-04-06T10:13:19;27.4;;;19.8;;
50651;SDS011;66928;52.086;5.240;2023-04-06T10:16:32;28.4;;;19.7;;
50651;SDS011;66928;52.086;5.240;2023-04-06T10:18:08;22.6;;;17.7;;
50651;SDS011;66928;52.086;5.240;2023-04-06T10:19:49;21.3;;;16.7;;
50651;SDS011;66928;52.086;5.240;2023-04-06T10:21:39;17.7;;;14.9;;
50651;SDS011;66928;52.086;5.240;2023-04-06T10:25:06;17.5;;;13.1;;
50651;SDS011;66928;52.086;5.240;2023-04-06T10:26:43;13.1;;;10.8;;
50651;SDS011;66928;52.086;5.240;2023-04-06T10:28:33;13.7;;;10.9;;
50651;SDS011;66928;52.086;5.240;2023-04-06T10:30:14;12.8;;;11.4;;
50651;SDS011;66928;52.086;5.240;2023-04-06T10:33:27;13.8;;;11.5;;
50651;SDS011;66928;52.086;5.240;2023-04-06T10:35:05;13.4;;;11.4;;
50651;SDS011;66928;52.086;5.240;2023-04-06T10:36:44;14.1;;;11.0;;
50651;SDS011;66928;52.086;5.240;2023-04-06T10:38:20;12.8;;;10.6;;
50651;SDS011;66928;52.086;5.240;2023-04-06T10:41:32;12.8;;;10.6;;
50651;SDS011;66928;52.086;5.240;2023-04-06T10:43:10;12.1;;;9.4;;
50651;SDS011;66928;52.086;5.240;2023-04-06T10:44:49;10.6;;;8.4;;
50651;SDS011;66928;52.086;5.240;2023-04-06T10:48:20;8.81;;;7.4;;
50651;SDS011;66928;52.086;5.240;2023-04-06T10:49:56;7.5;;;6.5;;
50651;SDS011;66928;52.086;5.240;2023-04-06T10:51:32;7.4;;;6.4;;
50651;SDS011;66928;52.086;5.240;2023-04-06T10:53:20;7.2;;;6.0;;
50651;SDS011;66928;52.086;5.240;2023-04-06T10:54:58;6.8;;;5.3;;
50651;SDS011;66928;52.086;5.240;2023-04-06T10:58:13;7.1;;;4.91;;
50651;SDS011;66928;52.086;5.240;2023-04-06T10:59:52;5.7;;;4.91;;
50651;SDS011;66928;52.086;5.240;2023-04-06T11:01:28;6.2;;;5.6;;
50651;SDS011;66928;52.086;5.240;2023-04-06T11:04:41;6.6;;;5.4;;
50651;SDS011;66928;52.086;5.240;2023-04-06T11:06:18;5.6;;;5.0;;
50651;SDS011;66928;52.086;5.240;2023-04-06T11:07:55;7.1;;;5.4;;
50651;SDS011;66928;52.086;5.240;2023-04-06T11:11:08;6.1;;;5.4;;
50651;SDS011;66928;52.086;5.240;2023-04-06T11:12:45;6.1;;;5.5;;
50651;SDS011;66928;52.086;5.240;2023-04-06T11:14:28;6.6;;;5.7;;
50651;SDS011;66928;52.086;5.240;2023-04-06T11:16:04;7.2;;;5.9;;
50651;SDS011;66928;52.086;5.240;2023-04-06T11:19:16;7.3;;;6.0;;
50651;SDS011;66928;52.086;5.240;2023-04-06T11:20:53;8.81;;;6.6;;
50651;SDS011;66928;52.086;5.240;2023-04-06T11:22:30;7.9;;;6.8;;
50651;SDS011;66928;52.086;5.240;2023-04-06T11:25:49;7.4;;;6.7;;
50651;SDS011;66928;52.086;5.240;2023-04-06T11:27:26;8.5;;;6.6;;
50651;SDS011;66928;52.086;5.240;2023-04-06T11:29:03;7.0;;;6.2;;
50651;SDS011;66928;52.086;5.240;2023-04-06T11:30:40;8.2;;;6.6;;
50651;SDS011;66928;52.086;5.240;2023-04-06T11:33:57;7.9;;;6.7;;
50651;SDS011;66928;52.086;5.240;2023-04-06T11:35:33;7.6;;;6.9;;
50651;SDS011;66928;52.086;5.240;2023-04-06T11:37:10;9.5;;;6.5;;
50651;SDS011;66928;52.086;5.240;2023-04-06T11:40:24;8.2;;;6.7;;
50651;SDS011;66928;52.086;5.240;2023-04-06T11:42:00;7.2;;;6.5;;
50651;SDS011;66928;52.086;5.240;2023-04-06T11:43:37;7.5;;;6.7;;
50651;SDS011;66928;52.086;5.240;2023-04-06T11:45:14;7.3;;;6.1;;
50651;SDS011;66928;52.086;5.240;2023-04-06T11:48:27;7.0;;;6.3;;
50651;SDS011;66928;52.086;5.240;2023-04-06T11:50:05;8.4;;;6.9;;
50651;SDS011;66928;52.086;5.240;2023-04-06T11:51:43;8.31;;;7.0;;
50651;SDS011;66928;52.086;5.240;2023-04-06T11:54:55;7.8;;;7.0;;
50651;SDS011;66928;52.086;5.240;2023-04-06T11:56:31;9.81;;;7.7;;
50651;SDS011;66928;52.086;5.240;2023-04-06T11:58:07;8.0;;;7.2;;
50651;SDS011;66928;52.086;5.240;2023-04-06T12:01:20;11.1;;;7.8;;
50651;SDS011;66928;52.086;5.240;2023-04-06T12:02:56;9.0;;;8.1;;
50651;SDS011;66928;52.086;5.240;2023-04-06T12:04:33;9.71;;;8.2;;
50651;SDS011;66928;52.086;5.240;2023-04-06T12:06:09;10.5;;;9.1;;
50651;SDS011;66928;52.086;5.240;2023-04-06T12:09:21;11.5;;;8.9;;
50651;SDS011;66928;52.086;5.240;2023-04-06T12:10:57;9.71;;;8.6;;
50651;SDS011;66928;52.086;5.240;2023-04-06T12:12:33;10.3;;;9.21;;
50651;SDS011;66928;52.086;5.240;2023-04-06T12:15:46;11.6;;;9.4;;
50651;SDS011;66928;52.086;5.240;2023-04-06T12:17:23;10.4;;;9.31;;
50651;SDS011;66928;52.086;5.240;2023-04-06T12:18:59;10.5;;;9.4;;
50651;SDS011;66928;52.086;5.240;2023-04-06T12:22:11;10.4;;;9.31;;
50651;SDS011;66928;52.086;5.240;2023-04-06T12:23:47;11.6;;;9.9;;
50651;SDS011;66928;52.086;5.240;2023-04-06T12:25:23;11.2;;;10.0;;
50651;SDS011;66928;52.086;5.240;2023-04-06T12:26:59;10.7;;;9.31;;
50651;SDS011;66928;52.086;5.240;2023-04-06T12:30:12;11.0;;;9.5;;
50651;SDS011;66928;52.086;5.240;2023-04-06T12:31:48;10.7;;;9.6;;
50651;SDS011;66928;52.086;5.240;2023-04-06T12:33:24;11.2;;;10.0;;
50651;SDS011;66928;52.086;5.240;2023-04-06T12:36:36;11.4;;;10.3;;
50651;SDS011;66928;52.086;5.240;2023-04-06T12:38:13;12.0;;;9.9;;
50651;SDS011;66928;52.086;5.240;2023-04-06T12:39:50;11.8;;;10.21;;
50651;SDS011;66928;52.086;5.240;2023-04-06T12:43:03;11.6;;;9.71;;
50651;SDS011;66928;52.086;5.240;2023-04-06T12:44:39;12.0;;;10.7;;
50651;SDS011;66928;52.086;5.240;2023-04-06T12:46:15;13.1;;;11.0;;
50651;SDS011;66928;52.086;5.240;2023-04-06T12:47:52;11.5;;;10.3;;
50651;SDS011;66928;52.086;5.240;2023-04-06T12:51:05;11.5;;;10.3;;
50651;SDS011;66928;52.086;5.240;2023-04-06T12:52:42;13.4;;;10.8;;
50651;SDS011;66928;52.086;5.240;2023-04-06T12:54:18;12.4;;;11.1;;
50651;SDS011;66928;52.086;5.240;2023-04-06T12:57:32;12.6;;;11.3;;
50651;SDS011;66928;52.086;5.240;2023-04-06T12:59:07;12.9;;;11.4;;
50651;SDS011;66928;52.086;5.240;2023-04-06T13:00:44;12.9;;;11.4;;
50651;SDS011;66928;52.086;5.240;2023-04-06T13:03:56;14.1;;;11.2;;
50651;SDS011;66928;52.086;5.240;2023-04-06T13:05:32;13.0;;;11.5;;
50651;SDS011;66928;52.086;5.240;2023-04-06T13:07:08;14.6;;;11.9;;
50651;SDS011;66928;52.086;5.240;2023-04-06T13:10:20;14.6;;;11.7;;
50651;SDS011;66928;52.086;5.240;2023-04-06T13:11:56;12.4;;;11.1;;
50651;SDS011;66928;52.086;5.240;2023-04-06T13:13:33;12.8;;;11.5;;
50651;SDS011;66928;52.086;5.240;2023-04-06T13:15:09;14.0;;;11.6;;
50651;SDS011;66928;52.086;5.240;2023-04-06T13:18:22;13.2;;;11.3;;
50651;SDS011;66928;52.086;5.240;2023-04-06T13:19:58;12.5;;;11.1;;
50651;SDS011;66928;52.086;5.240;2023-04-06T13:21:34;14.1;;;12.0;;
50651;SDS011;66928;52.086;5.240;2023-04-06T13:24:47;13.6;;;11.9;;
50651;SDS011;66928;52.086;5.240;2023-04-06T13:26:23;13.1;;;11.6;;
50651;SDS011;66928;52.086;5.240;2023-04-06T13:27:59;13.1;;;11.7;;
50651;SDS011;66928;52.086;5.240;2023-04-06T13:31:11;13.3;;;11.8;;
50651;SDS011;66928;52.086;5.240;2023-04-06T13:32:48;13.7;;;12.2;;
50651;SDS011;66928;52.086;5.240;2023-04-06T13:34:24;13.5;;;11.7;;
50651;SDS011;66928;52.086;5.240;2023-04-06T13:36:01;14.5;;;11.5;;
50651;SDS011;66928;52.086;5.240;2023-04-06T13:39:14;12.7;;;11.4;;
50651;SDS011;66928;52.086;5.240;2023-04-06T13:40:50;15.7;;;11.5;;
50651;SDS011;66928;52.086;5.240;2023-04-06T13:42:27;14.1;;;11.5;;
50651;SDS011;66928;52.086;5.240;2023-04-06T13:45:40;13.3;;;11.6;;
50651;SDS011;66928;52.086;5.240;2023-04-06T13:47:16;13.7;;;11.5;;
50651;SDS011;66928;52.086;5.240;2023-04-06T13:48:53;13.3;;;11.5;;
50651;SDS011;66928;52.086;5.240;2023-04-06T13:52:05;13.3;;;11.5;;
50651;SDS011;66928;52.086;5.240;2023-04-06T13:53:41;13.0;;;11.5;;
50651;SDS011;66928;52.086;5.240;2023-04-06T13:55:17;12.3;;;10.5;;
50651;SDS011;66928;52.086;5.240;2023-04-06T13:56:53;15.0;;;11.5;;
50651;SDS011;66928;52.086;5.240;2023-04-06T14:00:06;13.7;;;11.7;;
50651;SDS011;66928;52.086;5.240;2023-04-06T14:01:43;14.3;;;11.6;;
50651;SDS011;66928;52.086;5.240;2023-04-06T14:03:19;12.2;;;11.0;;
50651;SDS011;66928;52.086;5.240;2023-04-06T14:06:33;15.4;;;11.8;;
50651;SDS011;66928;52.086;5.240;2023-04-06T14:08:09;15.4;;;11.8;;
50651;SDS011;66928;52.086;5.240;2023-04-06T14:09:45;13.7;;;12.1;;
50651;SDS011;66928;52.086;5.240;2023-04-06T14:12:58;13.2;;;11.4;;
50651;SDS011;66928;52.086;5.240;2023-04-06T14:14:34;12.5;;;11.2;;
50651;SDS011;66928;52.086;5.240;2023-04-06T14:16:10;14.6;;;12.1;;
50651;SDS011;66928;52.086;5.240;2023-04-06T14:19:23;12.7;;;11.4;;
50651;SDS011;66928;52.086;5.240;2023-04-06T14:21:00;13.4;;;12.1;;
50651;SDS011;66928;52.086;5.240;2023-04-06T14:22:36;13.1;;;11.7;;
50651;SDS011;66928;52.086;5.240;2023-04-06T14:24:12;14.3;;;11.9;;
50651;SDS011;66928;52.086;5.240;2023-04-06T14:27:25;12.9;;;11.4;;
50651;SDS011;66928;52.086;5.240;2023-04-06T14:29:01;11.8;;;10.6;;
50651;SDS011;66928;52.086;5.240;2023-04-06T14:30:37;12.5;;;11.2;;
50651;SDS011;66928;52.086;5.240;2023-04-06T14:33:50;13.4;;;11.1;;
50651;SDS011;66928;52.086;5.240;2023-04-06T14:35:25;12.7;;;11.0;;
50651;SDS011;66928;52.086;5.240;2023-04-06T14:37:02;13.7;;;11.3;;
50651;SDS011;66928;52.086;5.240;2023-04-06T14:40:14;12.8;;;11.5;;
50651;SDS011;66928;52.086;5.240;2023-04-06T14:41:50;12.6;;;11.1;;
50651;SDS011;66928;52.086;5.240;2023-04-06T14:43:26;12.1;;;10.5;;
50651;SDS011;66928;52.086;5.240;2023-04-06T14:45:03;12.6;;;11.3;;
50651;SDS011;66928;52.086;5.240;2023-04-06T14:48:15;13.5;;;11.2;;
50651;SDS011;66928;52.086;5.240;2023-04-06T14:49:52;12.7;;;10.9;;
50651;SDS011;66928;52.086;5.240;2023-04-06T14:51:28;13.4;;;11.2;;
50651;SDS011;66928;52.086;5.240;2023-04-06T14:54:40;12.2;;;10.9;;
50651;SDS011;66928;52.086;5.240;2023-04-06T14:56:19;12.5;;;11.3;;
50651;SDS011;66928;52.086;5.240;2023-04-06T14:57:55;11.9;;;10.6;;
50651;SDS011;66928;52.086;5.240;2023-04-06T15:01:08;12.6;;;11.1;;
50651;SDS011;66928;52.086;5.240;2023-04-06T15:02:44;11.8;;;10.6;;
50651;SDS011;66928;52.086;5.240;2023-04-06T15:04:20;13.1;;;11.1;;
50651;SDS011;66928;52.086;5.240;2023-04-06T15:05:56;11.4;;;10.3;;
50651;SDS011;66928;52.086;5.240;2023-04-06T15:09:09;11.5;;;10.3;;
50651;SDS011;66928;52.086;5.240;2023-04-06T15:10:45;13.1;;;10.6;;
50651;SDS011;66928;52.086;5.240;2023-04-06T15:12:21;12.0;;;10.8;;
50651;SDS011;66928;52.086;5.240;2023-04-06T15:15:36;12.5;;;11.2;;
50651;SDS011;66928;52.086;5.240;2023-04-06T15:17:12;12.5;;;11.1;;
50651;SDS011;66928;52.086;5.240;2023-04-06T15:18:48;12.8;;;10.7;;
50651;SDS011;66928;52.086;5.240;2023-04-06T15:22:00;10.9;;;9.81;;
50651;SDS011;66928;52.086;5.240;2023-04-06T15:23:36;13.5;;;11.2;;
50651;SDS011;66928;52.086;5.240;2023-04-06T15:25:12;12.1;;;10.8;;
50651;SDS011;66928;52.086;5.240;2023-04-06T15:28:25;11.8;;;10.5;;
50651;SDS011;66928;52.086;5.240;2023-04-06T15:30:01;12.3;;;11.1;;
50651;SDS011;66928;52.086;5.240;2023-04-06T15:31:37;12.2;;;10.9;;
50651;SDS011;66928;52.086;5.240;2023-04-06T15:33:13;12.2;;;10.9;;
50651;SDS011;66928;52.086;5.240;2023-04-06T15:36:26;12.6;;;10.4;;
50651;SDS011;66928;52.086;5.240;2023-04-06T15:38:04;11.6;;;10.4;;
50651;SDS011;66928;52.086;5.240;2023-04-06T15:39:40;10.7;;;9.6;;
50651;SDS011;66928;52.086;5.240;2023-04-06T15:42:52;10.7;;;9.6;;
50651;SDS011;66928;52.086;5.240;2023-04-06T15:44:28;10.4;;;9.31;;
50651;SDS011;66928;52.086;5.240;2023-04-06T15:46:04;11.0;;;9.81;;
50651;SDS011;66928;52.086;5.240;2023-04-06T15:49:18;9.9;;;8.9;;
50651;SDS011;66928;52.086;5.240;2023-04-06T15:50:56;10.5;;;9.5;;
50651;SDS011;66928;52.086;5.240;2023-04-06T15:52:32;10.6;;;9.5;;
50651;SDS011;66928;52.086;5.240;2023-04-06T15:54:08;10.7;;;9.6;;
50651;SDS011;66928;52.086;5.240;2023-04-06T15:57:20;10.7;;;9.71;;
50651;SDS011;66928;52.086;5.240;2023-04-06T15:58:56;10.6;;;9.5;;
50651;SDS011;66928;52.086;5.240;2023-04-06T16:00:32;10.3;;;9.31;;
50651;SDS011;66928;52.086;5.240;2023-04-06T16:03:44;10.9;;;9.4;;
50651;SDS011;66928;52.086;5.240;2023-04-06T16:05:21;10.6;;;9.5;;
50651;SDS011;66928;52.086;5.240;2023-04-06T16:06:57;10.5;;;9.21;;
50651;SDS011;66928;52.086;5.240;2023-04-06T16:10:09;9.71;;;8.71;;
50651;SDS011;66928;52.086;5.240;2023-04-06T16:11:45;10.6;;;9.21;;
50651;SDS011;66928;52.086;5.240;2023-04-06T16:13:21;11.2;;;9.21;;
50651;SDS011;66928;52.086;5.240;2023-04-06T16:14:58;10.3;;;9.21;;
50651;SDS011;66928;52.086;5.240;2023-04-06T16:18:10;10.1;;;9.1;;
50651;SDS011;66928;52.086;5.240;2023-04-06T16:19:46;9.9;;;8.9;;
50651;SDS011;66928;52.086;5.240;2023-04-06T16:21:22;11.0;;;9.81;;
50651;SDS011;66928;52.086;5.240;2023-04-06T16:24:34;10.7;;;8.81;;
50651;SDS011;66928;52.086;5.240;2023-04-06T16:26:11;11.9;;;10.6;;
50651;SDS011;66928;52.086;5.240;2023-04-06T16:27:48;10.9;;;9.81;;
50651;SDS011;66928;52.086;5.240;2023-04-06T16:31:01;10.0;;;9.0;;
50651;SDS011;66928;52.086;5.240;2023-04-06T16:32:37;10.0;;;9.0;;
50651;SDS011;66928;52.086;5.240;2023-04-06T16:34:13;11.1;;;10.0;;
50651;SDS011;66928;52.086;5.240;2023-04-06T16:37:25;10.0;;;9.0;;
50651;SDS011;66928;52.086;5.240;2023-04-06T16:39:01;9.81;;;8.81;;
50651;SDS011;66928;52.086;5.240;2023-04-06T16:40:38;9.71;;;8.81;;
50651;SDS011;66928;52.086;5.240;2023-04-06T16:42:14;9.71;;;8.71;;
50651;SDS011;66928;52.086;5.240;2023-04-06T16:45:26;9.6;;;8.71;;
50651;SDS011;66928;52.086;5.240;2023-04-06T16:47:02;9.31;;;8.4;;
50651;SDS011;66928;52.086;5.240;2023-04-06T16:48:38;9.31;;;8.4;;
50651;SDS011;66928;52.086;5.240;2023-04-06T16:51:50;10.0;;;9.0;;
50651;SDS011;66928;52.086;5.240;2023-04-06T16:53:27;9.81;;;8.81;;
50651;SDS011;66928;52.086;5.240;2023-04-06T16:55:03;10.4;;;9.31;;
50651;SDS011;66928;52.086;5.240;2023-04-06T16:58:17;9.71;;;8.71;;
50651;SDS011;66928;52.086;5.240;2023-04-06T16:59:52;9.6;;;8.71;;
50651;SDS011;66928;52.086;5.240;2023-04-06T17:01:28;10.6;;;9.5;;
50651;SDS011;66928;52.086;5.240;2023-04-06T17:03:04;10.4;;;9.4;;
50651;SDS011;66928;52.086;5.240;2023-04-06T17:06:17;10.5;;;9.5;;
50651;SDS011;66928;52.086;5.240;2023-04-06T17:07:54;11.6;;;10.5;;
50651;SDS011;66928;52.086;5.240;2023-04-06T17:09:31;11.5;;;10.21;;
50651;SDS011;66928;52.086;5.240;2023-04-06T17:12:44;12.6;;;11.3;;
50651;SDS011;66928;52.086;5.240;2023-04-06T17:14:21;12.0;;;10.8;;
50651;SDS011;66928;52.086;5.240;2023-04-06T17:15:58;12.0;;;10.8;;
50651;SDS011;66928;52.086;5.240;2023-04-06T17:19:11;12.8;;;11.5;;
50651;SDS011;66928;52.086;5.240;2023-04-06T17:20:47;12.0;;;10.5;;
50651;SDS011;66928;52.086;5.240;2023-04-06T17:22:23;11.2;;;10.1;;
50651;SDS011;66928;52.086;5.240;2023-04-06T17:23:59;12.1;;;10.6;;
50651;SDS011;66928;52.086;5.240;2023-04-06T17:27:12;10.7;;;9.6;;
50651;SDS011;66928;52.086;5.240;2023-04-06T17:28:48;10.8;;;9.71;;
50651;SDS011;66928;52.086;5.240;2023-04-06T17:30:24;10.5;;;9.4;;
50651;SDS011;66928;52.086;5.240;2023-04-06T17:33:36;11.6;;;10.5;;
50651;SDS011;66928;52.086;5.240;2023-04-06T17:35:13;12.3;;;11.0;;
50651;SDS011;66928;52.086;5.240;2023-04-06T17:36:49;10.8;;;9.71;;
50651;SDS011;66928;52.086;5.240;2023-04-06T17:40:02;11.6;;;10.5;;
50651;SDS011;66928;52.086;5.240;2023-04-06T17:41:39;10.9;;;9.81;;
50651;SDS011;66928;52.086;5.240;2023-04-06T17:43:16;10.6;;;9.6;;
50651;SDS011;66928;52.086;5.240;2023-04-06T17:46:29;10.9;;;9.9;;
50651;SDS011;66928;52.086;5.240;2023-04-06T17:48:06;10.9;;;9.81;;
50651;SDS011;66928;52.086;5.240;2023-04-06T17:49:42;9.81;;;8.9;;
50651;SDS011;66928;52.086;5.240;2023-04-06T17:51:19;10.6;;;9.6;;